Time;durP1;ratioP1;P1;durP2;ratioP2;P2;SDS_P1;SDS_P2;PMS_P1;PMS_P2;Temp;Humidity;BMP_temperature;BMP_pressure;BME280_temperature;BME280_humidity;BME280_pressure;Samples;Min_cycle;Max_cycle;Signal;HPM_P1;HPM_P2
2023/06/10 00:01:23;;;;;;;15.23;9.20;;;;;;;16.29;100.00;92295.94;4985199;28;20035;-78
2023/06/10 00:03:51;;;;;;;13.82;9.70;;;;;;;16.26;100.00;92296.56;4975631;28;20039;-78
2023/06/10 00:06:17;;;;;;;15.45;9.68;;;;;;;16.16;100.00;92295.88;4963707;28;20033;-78
2023/06/10 00:08:43;;;;;;;15.18;10.20;;;;;;;16.12;100.00;92292.38;4974217;28;20038;-78
2023/06/10 00:11:10;;;;;;;18.10;9.82;;;;;;;16.11;100.00;92290.03;4974631;28;20027;-78
2023/06/10 00:13:35;;;;;;;17.17;9.93;;;;;;;16.09;100.00;92294.88;4974937;28;20042;-77
2023/06/10 00:16:01;;;;;;;17.20;10.23;;;;;;;16.10;100.00;92291.13;4976591;28;20065;-78
2023/06/10 00:18:26;;;;;;;19.67;10.95;;;;;;;16.09;100.00;92293.00;4979907;28;20093;-78
2023/06/10 00:20:54;;;;;;;15.85;10.43;;;;;;;16.07;100.00;92289.13;4956376;28;20047;-78
2023/06/10 00:23:22;;;;;;;19.67;11.13;;;;;;;16.06;100.00;92287.63;4974502;28;20031;-78
2023/06/10 00:25:48;;;;;;;17.63;10.57;;;;;;;16.04;100.00;92287.94;4973437;28;20145;-77
2023/06/10 00:28:13;;;;;;;17.45;10.10;;;;;;;15.99;100.00;92288.91;4964914;28;20245;-78
2023/06/10 00:30:39;;;;;;;16.15;10.07;;;;;;;15.99;100.00;92288.91;4972200;28;20069;-78
2023/06/10 00:33:04;;;;;;;16.77;10.20;;;;;;;15.99;100.00;92288.13;4974173;28;20031;-77
2023/06/10 00:35:33;;;;;;;16.60;10.38;;;;;;;15.97;100.00;92279.75;4981565;28;20039;-78
2023/06/10 00:37:59;;;;;;;19.13;10.48;;;;;;;15.97;100.00;92280.53;4980691;28;20635;-78
2023/06/10 00:40:25;;;;;;;14.18;9.45;;;;;;;15.95;100.00;92285.34;4969795;28;20038;-78
2023/06/10 00:42:50;;;;;;;16.67;9.88;;;;;;;15.94;100.00;92281.19;4976333;28;20038;-78
2023/06/10 00:45:16;;;;;;;18.52;9.73;;;;;;;15.93;100.00;92279.63;4979068;28;20038;-78
2023/06/10 00:47:42;;;;;;;18.15;9.90;;;;;;;15.93;100.00;92273.59;4979937;28;20047;-77
2023/06/10 00:50:07;;;;;;;15.40;9.55;;;;;;;15.93;100.00;92273.59;4971836;28;20064;-78
2023/06/10 00:52:34;;;;;;;14.77;9.35;;;;;;;15.91;100.00;92276.53;4982120;28;20039;-78
2023/06/10 00:55:01;;;;;;;14.52;9.73;;;;;;;15.89;100.00;92278.72;4973129;28;20039;-78
2023/06/10 00:57:27;;;;;;;19.58;9.63;;;;;;;15.89;100.00;92273.44;4981379;28;20043;-78
2023/06/10 00:59:53;;;;;;;15.52;9.90;;;;;;;15.89;100.00;92276.09;4982457;28;20034;-78
2023/06/10 01:02:19;;;;;;;14.35;9.48;;;;;;;15.92;100.00;92275.47;4976695;28;20046;-78
2023/06/10 01:04:44;;;;;;;18.23;10.07;;;;;;;15.91;100.00;92268.63;4977749;28;20539;-78
2023/06/10 01:07:30;;;;;;;14.93;9.00;;;;;;;15.90;100.00;92269.72;4977781;28;20038;-78
2023/06/10 01:10:11;;;;;;;15.52;10.20;;;;;;;15.86;100.00;92263.53;4977677;28;20081;-78
2023/06/10 01:13:02;;;;;;;16.48;10.15;;;;;;;15.88;100.00;92263.22;4981706;28;20038;-78
2023/06/10 01:15:30;;;;;;;16.17;10.50;;;;;;;15.87;100.00;92264.31;4982385;28;20545;-79
2023/06/10 01:18:01;;;;;;;18.65;9.88;;;;;;;15.86;100.00;92263.53;4984366;28;20034;-78
2023/06/10 01:20:31;;;;;;;15.48;9.90;;;;;;;15.86;100.00;92265.41;4975835;28;20030;-78
2023/06/10 01:22:58;;;;;;;17.88;9.38;;;;;;;15.86;100.00;92262.78;4980087;28;20035;-78
2023/06/10 01:25:29;;;;;;;16.38;9.88;;;;;;;15.84;100.00;92263.09;4976475;28;20070;-78
2023/06/10 01:28:13;;;;;;;18.83;10.90;;;;;;;15.84;100.00;92260.44;4972251;28;20135;-78
2023/06/10 01:30:53;;;;;;;18.83;10.25;;;;;;;15.84;100.00;92265.72;4990081;28;20066;-77
2023/06/10 01:33:26;;;;;;;15.93;10.27;;;;;;;15.84;100.00;92271.00;4990628;28;20033;-78
2023/06/10 01:35:57;;;;;;;21.10;11.05;;;;;;;15.82;100.00;92268.69;4972340;28;20456;-78
2023/06/10 01:38:26;;;;;;;20.13;11.27;;;;;;;15.81;100.00;92271.66;4976479;28;20042;-78
2023/06/10 01:40:55;;;;;;;20.63;11.60;;;;;;;15.80;100.00;92270.09;4969853;28;20026;-78
2023/06/10 01:43:21;;;;;;;17.77;10.90;;;;;;;15.79;100.00;92271.97;4974815;28;20050;-78
2023/06/10 01:45:47;;;;;;;16.17;10.18;;;;;;;15.79;100.00;92279.91;4969439;28;20065;-78
2023/06/10 01:48:12;;;;;;;16.85;11.02;;;;;;;15.80;100.00;92281.44;4959745;28;20034;-78
2023/06/10 01:50:38;;;;;;;16.65;10.30;;;;;;;15.79;100.00;92273.84;4957581;28;20078;-78
2023/06/10 01:53:05;;;;;;;18.48;10.85;;;;;;;15.78;100.00;92274.94;4970572;28;20035;-78
2023/06/10 01:55:31;;;;;;;18.25;10.50;;;;;;;15.77;100.00;92276.81;4979974;28;20058;-78
2023/06/10 01:57:57;;;;;;;16.95;10.80;;;;;;;15.75;100.00;92270.31;4973196;28;20035;-78
2023/06/10 02:00:23;;;;;;;20.73;11.65;;;;;;;15.74;100.00;92269.53;4969185;28;20038;-78
2023/06/10 02:02:48;;;;;;;18.92;11.15;;;;;;;15.73;100.00;92275.13;4974516;28;20473;-78
2023/06/10 02:05:14;;;;;;;19.08;11.43;;;;;;;15.73;100.00;92275.13;4959694;28;20035;-78
2023/06/10 02:07:41;;;;;;;17.38;11.05;;;;;;;15.73;100.00;92275.13;4974400;28;20030;-78
2023/06/10 02:10:07;;;;;;;19.20;11.80;;;;;;;15.72;100.00;92273.59;4942511;28;20058;-78
2023/06/10 02:12:33;;;;;;;21.17;11.07;;;;;;;15.73;100.00;92269.84;4958090;28;20469;-78
2023/06/10 02:14:59;;;;;;;18.77;10.23;;;;;;;15.72;100.00;92269.09;4967649;28;20117;-78
2023/06/10 02:17:25;;;;;;;22.25;12.07;;;;;;;15.71;100.00;92272.03;4976076;28;20054;-78
2023/06/10 02:19:52;;;;;;;19.65;11.27;;;;;;;15.71;100.00;92267.53;4983633;28;20031;-78
2023/06/10 02:22:22;;;;;;;20.70;12.10;;;;;;;15.70;100.00;92262.56;4988568;28;20117;-78
2023/06/10 02:24:48;;;;;;;20.33;11.70;;;;;;;15.69;100.00;92267.06;4974856;28;20142;-78
2023/06/10 02:27:18;;;;;;;17.92;11.48;;;;;;;15.68;100.00;92262.13;4982880;28;20027;-78
2023/06/10 02:29:44;;;;;;;18.42;10.43;;;;;;;15.65;100.00;92265.38;4970750;28;20125;-78
2023/06/10 02:32:10;;;;;;;20.35;11.30;;;;;;;15.61;100.00;92260.75;4973576;28;20070;-78
2023/06/10 02:34:36;;;;;;;22.52;11.38;;;;;;;15.60;100.00;92267.16;4974915;28;20039;-78
2023/06/10 02:37:03;;;;;;;20.98;11.10;;;;;;;15.60;100.00;92267.16;4974644;28;20030;-78
2023/06/10 02:39:29;;;;;;;17.23;11.68;;;;;;;15.58;100.00;92264.06;4972655;28;20489;-76
2023/06/10 02:41:55;;;;;;;19.52;11.18;;;;;;;15.58;100.00;92268.53;4973176;28;20455;-78
2023/06/10 02:44:21;;;;;;;23.95;11.40;;;;;;;15.56;100.00;92266.22;4973529;28;20133;-79
2023/06/10 02:46:47;;;;;;;21.52;11.93;;;;;;;15.55;100.00;92262.03;4968578;28;20031;-78
2023/06/10 02:49:13;;;;;;;18.77;11.20;;;;;;;15.55;100.00;92254.13;4961289;28;20050;-78
2023/06/10 02:51:39;;;;;;;18.73;11.10;;;;;;;15.53;100.00;92251.03;4973710;28;20038;-78
2023/06/10 02:54:05;;;;;;;19.00;12.18;;;;;;;15.53;100.00;92245.75;4969080;28;20042;-77
2023/06/10 02:56:31;;;;;;;23.85;11.82;;;;;;;15.53;100.00;92245.75;4973398;28;20069;-78
2023/06/10 02:59:00;;;;;;;21.42;12.43;;;;;;;15.53;100.00;92251.03;4971901;28;20116;-79
2023/06/10 03:01:27;;;;;;;23.25;12.32;;;;;;;15.51;100.00;92252.44;4965015;28;20054;-78
2023/06/10 03:04:07;;;;;;;24.80;12.15;;;;;;;15.49;100.00;92244.88;4973931;28;20112;-78
2023/06/10 03:06:35;;;;;;;23.48;11.80;;;;;;;15.50;100.00;92248.28;4988149;28;20038;-78
2023/06/10 03:09:16;;;;;;;;;;;;;;;15.48;100.00;92235.41;4965382;28;20497;-78
2023/06/10 03:11:44;;;;;;;22.48;12.77;;;;;;;15.48;100.00;92235.41;4958636;28;19922;-78
2023/06/10 03:14:10;;;;;;;22.45;13.25;;;;;;;15.47;100.00;92225.97;4972887;28;20035;-78
2023/06/10 03:16:40;;;;;;;20.17;12.23;;;;;;;15.45;100.00;92228.16;4968723;28;20534;-78
2023/06/10 03:19:07;;;;;;;25.17;12.45;;;;;;;15.44;100.00;92226.59;4962433;28;20041;-78
2023/06/10 03:21:34;;;;;;;19.02;11.82;;;;;;;15.43;100.00;92230.34;4970586;28;20045;-78
2023/06/10 03:24:00;;;;;;;30.52;13.13;;;;;;;15.41;100.00;92229.88;4957842;28;20030;-78
2023/06/10 03:26:27;;;;;;;26.08;13.52;;;;;;;15.40;100.00;92234.38;4973456;28;20042;-78
2023/06/10 03:28:53;;;;;;;20.88;12.57;;;;;;;15.40;100.00;92236.22;4971053;28;20110;-78
2023/06/10 03:31:22;;;;;;;24.17;13.68;;;;;;;15.40;100.00;92228.31;4962933;28;20516;-78
2023/06/10 03:33:47;;;;;;;22.67;12.65;;;;;;;15.37;100.00;92228.97;4963907;28;20085;-78
2023/06/10 03:36:13;;;;;;;23.10;13.15;;;;;;;15.37;100.00;92231.59;4973045;28;20034;-78
2023/06/10 03:38:38;;;;;;;28.25;12.52;;;;;;;15.36;100.00;92230.06;4959034;28;20041;-78
2023/06/10 03:41:06;;;;;;;22.33;12.43;;;;;;;15.35;100.00;92231.16;4970748;28;20038;-78
2023/06/10 03:43:32;;;;;;;22.23;12.25;;;;;;;15.36;100.00;92232.72;4972388;28;20039;-78
2023/06/10 03:45:58;;;;;;;24.83;12.48;;;;;;;15.36;100.00;92233.47;4968784;28;20035;-78
2023/06/10 03:48:24;;;;;;;22.77;14.13;;;;;;;15.38;100.00;92233.16;4971213;28;20034;-78
2023/06/10 03:50:52;;;;;;;24.77;14.77;;;;;;;15.38;100.00;92231.31;4960107;28;20026;-78
2023/06/10 03:53:19;;;;;;;25.25;13.90;;;;;;;15.38;100.00;92227.91;4967750;28;20447;-78
2023/06/10 03:55:45;;;;;;;28.17;14.50;;;;;;;15.39;100.00;92234.69;4975493;28;20053;-78
2023/06/10 03:58:14;;;;;;;24.38;14.70;;;;;;;15.40;100.00;92231.75;4964239;28;20516;-78
2023/06/10 04:00:41;;;;;;;22.92;13.60;;;;;;;15.41;100.00;92237.78;4957142;28;20054;-79
2023/06/10 04:03:09;;;;;;;24.65;13.93;;;;;;;15.43;100.00;92240.88;4980148;28;20074;-78
2023/06/10 04:05:39;;;;;;;25.55;14.45;;;;;;;15.44;100.00;92237.13;4982270;28;20320;-78
2023/06/10 04:08:05;;;;;;;24.60;14.23;;;;;;;15.44;100.00;92237.13;4973394;28;20121;-78
2023/06/10 04:10:30;;;;;;;24.73;14.00;;;;;;;15.44;100.00;92233.72;4974699;28;20042;-77
2023/06/10 04:12:56;;;;;;;36.70;15.70;;;;;;;15.43;100.00;92227.69;4976366;28;20092;-78
2023/06/10 04:15:25;;;;;;;26.65;13.73;;;;;;;15.46;100.00;92228.91;4975869;28;20042;-78
2023/06/10 04:17:50;;;;;;;23.30;13.50;;;;;;;15.44;100.00;92234.50;4972706;28;20578;-78
2023/06/10 04:20:19;;;;;;;28.67;13.75;;;;;;;15.44;100.00;92237.13;4972203;28;20088;-77
2023/06/10 04:22:47;;;;;;;28.75;14.40;;;;;;;15.43;100.00;92240.13;4973192;28;20489;-77
2023/06/10 04:25:12;;;;;;;32.78;15.55;;;;;;;15.45;100.00;92232.66;4971131;28;20062;-78
2023/06/10 04:27:40;;;;;;;24.40;14.15;;;;;;;15.44;100.00;92231.09;4972984;28;20050;-78
2023/06/10 04:30:06;;;;;;;29.98;14.57;;;;;;;15.46;100.00;92228.91;4975994;28;20133;-78
2023/06/10 04:32:34;;;;;;;28.42;14.35;;;;;;;15.48;100.00;92232.78;4970194;28;20039;-78
2023/06/10 04:34:59;;;;;;;25.15;14.10;;;;;;;15.51;100.00;92228.72;4979040;28;20034;-78
2023/06/10 04:37:25;;;;;;;28.23;15.13;;;;;;;15.55;100.00;92233.03;4973611;28;20477;-77
2023/06/10 04:39:51;;;;;;;24.27;13.95;;;;;;;15.57;100.00;92222.16;4976133;28;20034;-78
2023/06/10 04:42:17;;;;;;;33.40;15.88;;;;;;;15.61;100.00;92229.09;4976228;28;20458;-78
2023/06/10 04:44:43;;;;;;;31.17;17.20;;;;;;;15.65;100.00;92223.16;4973571;28;20073;-78
2023/06/10 04:47:09;;;;;;;33.72;14.93;;;;;;;15.70;100.00;92228.28;4965563;28;20042;-78
2023/06/10 04:49:35;;;;;;;27.98;14.60;;;;;;;15.73;100.00;92228.41;4991877;28;20035;-76
2023/06/10 04:52:04;;;;;;;32.53;14.43;;;;;;;15.78;100.00;92235.34;4960056;28;20492;-79
2023/06/10 04:54:33;;;;;;;28.20;15.00;;;;;;;15.81;100.00;92232.09;4959420;28;20066;-78
2023/06/10 04:57:00;;;;;;;30.23;15.18;;;;;;;15.80;100.00;92233.94;4995286;28;20515;-78
2023/06/10 04:59:25;;;;;;;34.97;16.77;;;;;;;15.78;100.00;92232.72;4971644;28;20042;-77
2023/06/10 05:01:51;;;;;;;29.05;15.85;;;;;;;15.86;100.00;92231.88;4978369;28;20039;-78
2023/06/10 05:04:16;;;;;;;30.33;16.42;;;;;;;15.89;100.00;92236.50;4983456;28;20030;-78
2023/06/10 05:06:42;;;;;;;32.92;17.20;;;;;;;15.89;100.00;92236.50;4975183;28;20038;-78
2023/06/10 05:09:08;;;;;;;32.83;16.80;;;;;;;15.93;100.00;92234.75;4977105;28;20507;-78
2023/06/10 05:11:33;;;;;;;33.17;17.25;;;;;;;15.89;100.00;92231.22;4977268;28;20066;-78
2023/06/10 05:13:59;;;;;;;36.28;17.67;;;;;;;15.95;100.00;92232.56;4985875;28;20026;-78
2023/06/10 05:16:24;;;;;;;34.22;18.67;;;;;;;16.00;100.00;92224.44;4972633;28;20058;-78
2023/06/10 05:18:51;;;;;;;35.13;17.98;;;;;;;15.92;100.00;92230.59;4955914;28;20031;-77
2023/06/10 05:21:17;;;;;;;35.20;17.75;;;;;;;16.05;100.00;92225.31;4958265;28;20513;-78
2023/06/10 05:23:43;;;;;;;42.03;19.20;;;;;;;16.05;100.00;92227.97;4956138;28;20135;-78
2023/06/10 05:26:08;;;;;;;38.33;18.35;;;;;;;16.11;100.00;92231.94;4958300;28;20051;-78
2023/06/10 05:28:34;;;;;;;38.08;18.15;;;;;;;16.13;100.00;92235.03;4966352;28;20035;-78
2023/06/10 05:30:59;;;;;;;34.38;17.98;;;;;;;16.08;100.00;92236.03;4958349;28;20067;-79
2023/06/10 05:33:25;;;;;;;34.83;18.15;;;;;;;16.06;100.00;92232.16;4958377;28;20457;-78
2023/06/10 05:35:50;;;;;;;37.75;18.50;;;;;;;16.07;100.00;92231.06;4960011;28;20041;-78
2023/06/10 05:38:16;;;;;;;37.40;19.50;;;;;;;16.11;100.00;92240.63;4959353;28;20051;-78
2023/06/10 05:40:42;;;;;;;36.58;18.98;;;;;;;16.15;100.00;92232.84;4976054;28;20038;-78
2023/06/10 05:43:09;;;;;;;34.90;18.75;;;;;;;16.19;100.00;92239.03;4969593;28;20035;-78
2023/06/10 05:45:35;;;;;;;31.25;17.05;;;;;;;16.23;100.00;92239.91;4976228;28;20038;-78
2023/06/10 05:48:00;;;;;;;35.15;17.42;;;;;;;16.27;100.00;92238.16;4960974;28;20035;-79
2023/06/10 05:50:26;;;;;;;32.03;16.77;;;;;;;16.33;100.00;92239.50;4967552;28;20047;-78
2023/06/10 05:52:53;;;;;;;32.08;17.02;;;;;;;16.38;100.00;92236.63;4958458;28;20145;-79
2023/06/10 05:55:19;;;;;;;37.83;17.70;;;;;;;16.40;100.00;92242.38;4960952;28;20118;-78
2023/06/10 05:57:44;;;;;;;34.95;17.48;;;;;;;16.40;100.00;92238.97;4975571;28;20047;-78
2023/06/10 06:00:11;;;;;;;31.38;17.73;;;;;;;16.33;100.00;92236.84;4964826;28;20035;-79
2023/06/10 06:02:39;;;;;;;43.47;19.13;;;;;;;16.30;100.00;92240.16;4977988;28;20249;-78
2023/06/10 06:05:05;;;;;;;35.97;18.70;;;;;;;16.25;100.00;92240.34;4958931;28;20038;-78
2023/06/10 06:07:30;;;;;;;36.15;17.80;;;;;;;16.31;100.00;92244.31;4960647;28;20051;-79
2023/06/10 06:09:56;;;;;;;34.92;18.77;;;;;;;16.34;100.00;92241.03;4964364;28;20063;-77
2023/06/10 06:12:21;;;;;;;36.30;18.63;;;;;;;16.37;100.00;92243.03;4975256;28;20043;-80
2023/06/10 06:14:49;;;;;;;33.85;17.90;;;;;;;16.36;100.00;92241.47;4977701;28;20022;-79
2023/06/10 06:17:14;;;;;;;40.70;19.45;;;;;;;16.35;100.00;92241.81;4976187;28;20055;-79
2023/06/10 06:19:40;;;;;;;35.63;17.15;;;;;;;16.35;100.00;92242.59;4976140;28;20584;-79
2023/06/10 06:22:05;;;;;;;32.95;17.45;;;;;;;16.37;100.00;92245.66;4977201;28;20035;-79
2023/06/10 06:24:31;;;;;;;32.97;16.35;;;;;;;16.37;100.00;92253.59;4976097;28;20043;-79
2023/06/10 06:26:57;;;;;;;33.28;16.50;;;;;;;16.38;100.00;92252.47;4977346;28;20081;-79
2023/06/10 06:29:22;;;;;;;33.50;17.92;;;;;;;16.46;100.00;92256.16;4976683;28;20026;-79
2023/06/10 06:31:48;;;;;;;38.88;18.98;;;;;;;16.55;100.00;92256.03;4976172;28;20061;-79
2023/06/10 06:34:14;;;;;;;40.53;18.75;;;;;;;16.61;100.00;92252.06;4972470;28;20505;-78
2023/06/10 06:36:39;;;;;;;35.17;17.88;;;;;;;16.69;100.00;92253.84;4963872;28;20125;-78
2023/06/10 06:39:05;;;;;;;30.73;16.35;;;;;;;16.73;100.00;92262.69;4964876;28;20122;-78
2023/06/10 06:41:31;;;;;;;29.35;15.20;;;;;;;16.67;100.00;92266.63;4968567;28;20062;-78
2023/06/10 06:43:56;;;;;;;33.13;17.10;;;;;;;16.49;100.00;92252.84;4968729;28;20031;-78
2023/06/10 06:46:29;;;;;;;38.58;17.70;;;;;;;16.45;100.00;92252.72;4956630;28;20070;-78
2023/06/10 06:48:58;;;;;;;37.20;18.63;;;;;;;16.42;100.00;92253.38;4960876;28;20065;-79
2023/06/10 06:51:24;;;;;;;38.88;17.80;;;;;;;16.37;100.00;92258.09;4948636;28;20039;-79
2023/06/10 06:53:51;;;;;;;33.63;17.77;;;;;;;16.33;100.00;92254.56;4968053;28;20027;-78
2023/06/10 06:56:17;;;;;;;36.05;18.77;;;;;;;16.31;100.00;92254.88;4955322;28;20063;-78
2023/06/10 06:58:42;;;;;;;34.85;18.15;;;;;;;16.35;100.00;92255.78;4961026;28;20265;-78
2023/06/10 07:01:08;;;;;;;37.47;19.00;;;;;;;16.25;100.00;92253.53;4971815;28;20392;-78
2023/06/10 07:03:33;;;;;;;34.67;18.63;;;;;;;16.21;100.00;92255.28;4976941;28;20039;-78
2023/06/10 07:05:59;;;;;;;39.35;19.23;;;;;;;16.20;100.00;92256.41;4961597;28;20046;-77
2023/06/10 07:08:25;;;;;;;46.97;19.95;;;;;;;16.26;100.00;92260.38;4958105;28;20037;-78
2023/06/10 07:10:50;;;;;;;39.75;19.58;;;;;;;16.27;100.00;92264.56;4974897;28;20057;-78
2023/06/10 07:13:16;;;;;;;41.65;19.70;;;;;;;16.33;100.00;92257.97;4959907;28;20035;-78
2023/06/10 07:15:41;;;;;;;38.15;19.83;;;;;;;16.30;100.00;92263.94;4921258;28;1224149;-78
2023/06/10 07:18:07;;;;;;;46.53;23.20;;;;;;;16.23;100.00;92261.81;4982467;28;20050;-79
2023/06/10 07:20:33;;;;;;;42.75;21.73;;;;;;;16.32;100.00;92260.94;4965519;28;20094;-78
2023/06/10 07:22:58;;;;;;;47.75;22.00;;;;;;;16.38;100.00;92260.41;4968322;28;20437;-81
2023/06/10 07:25:24;;;;;;;46.00;22.50;;;;;;;16.40;100.00;92266.13;4986592;28;20145;-78
2023/06/10 07:27:49;;;;;;;41.70;21.25;;;;;;;16.52;100.00;92267.25;4983775;28;20042;-78
2023/06/10 07:30:15;;;;;;;43.03;20.67;;;;;;;16.67;100.00;92266.63;4981205;28;20108;-77
2023/06/10 07:32:41;;;;;;;41.20;20.35;;;;;;;16.79;100.00;92261.38;4977580;28;20035;-77
2023/06/10 07:35:10;;;;;;;44.45;21.08;;;;;;;16.92;100.00;92258.75;4986346;28;20263;-78
2023/06/10 07:37:36;;;;;;;45.13;20.95;;;;;;;17.08;100.00;92262.25;4993760;28;20054;-78
2023/06/10 07:40:02;;;;;;;41.92;19.98;;;;;;;17.23;100.00;92260.84;4974974;28;20038;-77
2023/06/10 07:42:27;;;;;;;44.40;20.73;;;;;;;17.37;100.00;92257.84;4960423;28;20065;-77
2023/06/10 07:44:53;;;;;;;42.78;21.17;;;;;;;17.26;100.00;92262.81;4985560;28;20034;-77
2023/06/10 07:47:18;;;;;;;47.97;21.95;;;;;;;17.13;100.00;92262.03;4976322;28;20038;-77
2023/06/10 07:49:44;;;;;;;52.70;22.67;;;;;;;16.98;100.00;92260.84;4976806;28;20030;-77
2023/06/10 07:52:10;;;;;;;43.25;22.67;;;;;;;17.03;100.00;92263.25;4977127;28;20058;-78
2023/06/10 07:54:35;;;;;;;45.75;22.63;;;;;;;17.11;100.00;92256.31;4992356;28;20048;-77
2023/06/10 07:57:01;;;;;;;47.15;23.13;;;;;;;17.21;100.00;92255.88;4987230;28;20034;-78
2023/06/10 07:59:26;;;;;;;49.67;22.40;;;;;;;17.49;100.00;92255.16;4981529;28;20093;-77
2023/06/10 08:01:53;;;;;;;47.90;22.08;;;;;;;17.38;100.00;92254.06;4983987;28;20027;-79
2023/06/10 08:04:18;;;;;;;43.13;21.52;;;;;;;17.42;100.00;92247.78;4985548;28;20045;-79
2023/06/10 08:06:44;;;;;;;45.88;21.77;;;;;;;17.48;100.00;92250.97;4985154;28;20094;-78
2023/06/10 08:09:09;;;;;;;48.88;22.48;;;;;;;17.50;100.00;92248.78;4985676;28;20047;-77
2023/06/10 08:11:35;;;;;;;48.67;22.83;;;;;;;17.44;100.00;92250.09;4984240;28;20086;-78
2023/06/10 08:14:01;;;;;;;48.30;24.27;;;;;;;17.39;100.00;92255.63;4999093;28;20082;-79
2023/06/10 08:16:27;;;;;;;51.47;23.85;;;;;;;17.41;100.00;92254.19;4993119;28;20058;-79
2023/06/10 08:18:52;;;;;;;54.63;25.25;;;;;;;17.30;100.00;92257.63;4997138;28;20153;-79
2023/06/10 08:21:19;;;;;;;49.13;22.92;;;;;;;17.62;100.00;92253.25;4995754;28;20041;-77
2023/06/10 08:23:44;;;;;;;48.75;24.08;;;;;;;17.66;100.00;92252.25;4996159;28;20034;-79
2023/06/10 08:26:10;;;;;;;49.35;23.33;;;;;;;17.74;100.00;92250.56;4981707;28;20050;-79
2023/06/10 08:28:36;;;;;;;51.00;22.77;;;;;;;17.90;100.00;92253.31;4993366;28;20054;-81
2023/06/10 08:31:01;;;;;;;46.15;22.13;;;;;;;18.02;100.00;92261.22;4991996;28;20084;-81
2023/06/10 08:33:27;;;;;;;43.92;21.65;;;;;;;18.17;100.00;92257.06;4983936;28;20027;-80
2023/06/10 08:35:52;;;;;;;43.45;20.02;;;;;;;18.27;100.00;92255.81;4988529;28;20400;-80
2023/06/10 08:38:18;;;;;;;44.67;20.00;;;;;;;18.42;100.00;92265.66;4983565;28;20089;-80
2023/06/10 08:40:44;;;;;;;45.97;20.83;;;;;;;18.51;100.00;92263.63;4988062;28;20031;-80
2023/06/10 09:04:57;;;;;;;51.55;24.33;;;;;;;18.56;100.00;92265.25;5805249;23;20081;-79
2023/06/10 09:07:23;;;;;;;57.35;25.50;;;;;;;18.43;100.00;92264.53;5007450;28;20515;-78
2023/06/10 09:09:53;;;;;;;48.85;23.27;;;;;;;18.19;100.00;92264.66;4990103;28;20328;-78
2023/06/10 09:12:19;;;;;;;52.58;24.23;;;;;;;18.09;100.00;92271.22;4998528;28;20056;-78
2023/06/10 09:14:45;;;;;;;54.80;26.23;;;;;;;17.94;100.00;92264.75;4971126;28;20496;-78
2023/06/10 09:17:10;;;;;;;55.35;25.85;;;;;;;18.01;100.00;92264.97;4988056;28;20043;-78
2023/06/10 09:19:38;;;;;;;57.13;26.23;;;;;;;18.03;100.00;92267.28;4989543;28;20049;-79
2023/06/10 09:22:04;;;;;;;56.95;27.08;;;;;;;17.89;100.00;92265.00;4994662;28;20549;-78
2023/06/10 09:24:31;;;;;;;65.80;29.35;;;;;;;17.80;100.00;92264.34;4951235;28;20042;-78
2023/06/10 09:27:07;;;;;;;58.00;28.88;;;;;;;17.83;100.00;92269.00;4959617;28;20034;-79
2023/06/10 09:29:57;;;;;;;63.63;28.63;;;;;;;17.87;100.00;92259.28;4964620;28;20035;-80
2023/06/10 09:32:23;;;;;;;65.20;26.92;;;;;;;17.93;100.00;92262.47;4995725;28;20030;-80
2023/06/10 09:34:50;;;;;;;64.95;27.77;;;;;;;17.89;100.00;92263.13;4989066;28;20054;-78
2023/06/10 09:37:25;;;;;;;53.83;26.30;;;;;;;17.86;100.00;92268.34;4981055;28;20031;-79
2023/06/10 09:40:21;;;;;;;53.05;24.95;;;;;;;18.07;100.00;92263.59;4995472;28;20085;-80
2023/06/10 09:42:53;;;;;;;54.22;26.00;;;;;;;18.26;100.00;92262.19;4977026;28;20047;-80
2023/06/10 09:45:19;;;;;;;52.60;26.35;;;;;;;18.37;100.00;92262.47;4983592;28;20099;-81
2023/06/10 09:47:46;;;;;;;45.83;20.85;;;;;;;18.55;100.00;92260.28;4987991;28;20110;-83
2023/06/10 09:50:12;;;;;;;47.60;20.33;;;;;;;18.76;100.00;92260.81;5021265;23;20146;-80
2023/06/10 09:52:38;;;;;;;55.10;25.45;;;;;;;18.87;100.00;92261.88;4957194;28;20102;-79
2023/06/10 09:55:08;;;;;;;51.67;25.45;;;;;;;18.68;100.00;92256.44;4961260;28;20043;-79
2023/06/10 09:57:35;;;;;;;59.47;27.08;;;;;;;18.56;100.00;92261.84;4936919;29;20031;-78
2023/06/10 10:00:19;;;;;;;62.28;27.88;;;;;;;18.42;100.00;92263.03;4952573;29;20039;-78
2023/06/10 10:02:47;;;;;;;72.32;29.70;;;;;;;18.50;100.00;92267.38;4951366;29;20039;-79
2023/06/10 10:05:14;;;;;;;65.15;29.80;;;;;;;18.51;100.00;92260.97;4956406;28;20027;-79
2023/06/10 10:07:40;;;;;;;69.03;30.55;;;;;;;18.47;100.00;92260.13;4960123;29;20038;-79
2023/06/10 10:10:08;;;;;;;60.92;25.92;;;;;;;18.57;100.00;92266.03;4956166;28;20441;-81
2023/06/10 10:12:37;;;;;;;64.25;28.65;;;;;;;18.49;100.00;92271.16;4941938;29;20082;-81
2023/06/10 10:15:08;;;;;;;58.97;28.02;;;;;;;18.73;100.00;92264.16;4957477;28;20034;-80
2023/06/10 10:17:39;;;;;;;71.68;27.60;;;;;;;18.81;100.00;92273.84;4956652;29;20036;-81
2023/06/10 10:20:06;;;;;;;63.97;27.50;;;;;;;18.93;100.00;92263.16;4955100;29;20031;-81
2023/06/10 10:22:40;;;;;;;61.25;28.90;;;;;;;18.85;100.00;92264.09;4956782;29;20035;-81
2023/06/10 10:25:12;;;;;;;52.20;23.58;;;;;;;18.78;100.00;92271.88;4957071;28;20027;-83
2023/06/10 10:27:48;;;;;;;62.05;29.20;;;;;;;18.79;100.00;92262.81;4944708;29;20050;-81
2023/06/10 10:30:16;;;;;;;57.83;27.70;;;;;;;19.05;100.00;92257.00;4940480;29;20027;-83
2023/06/10 10:33:03;;;;;;;61.22;27.35;;;;;;;19.14;100.00;92257.59;4961425;29;20023;-82
2023/06/10 10:35:32;;;;;;;59.63;26.63;;;;;;;19.16;100.00;92256.47;4960645;28;20039;-82
2023/06/10 10:37:58;;;;;;;49.58;24.27;;;;;;;19.27;100.00;92252.94;4957680;29;20062;-81
2023/06/10 10:40:25;;;;;;;53.20;25.10;;;;;;;19.40;100.00;92261.56;4954434;29;20504;-81
2023/06/10 10:42:52;;;;;;;51.20;25.17;;;;;;;19.45;100.00;92257.84;4946909;29;20049;-79
2023/06/10 10:45:18;;;;;;;49.95;23.00;;;;;;;19.40;100.00;92260.78;4949316;28;20035;-81
2023/06/10 10:47:46;;;;;;;51.83;23.38;;;;;;;19.25;100.00;92249.88;4953892;29;20047;-80
2023/06/10 10:50:19;;;;;;;49.00;24.33;;;;;;;19.23;100.00;92252.09;4953630;29;20500;-79
2023/06/10 10:52:58;;;;;;;53.35;25.40;;;;;;;19.34;100.00;92249.66;4949125;29;20067;-78
2023/06/10 10:55:26;;;;;;;47.40;22.50;;;;;;;19.53;100.00;92246.28;4950285;28;20584;-80
2023/06/10 10:58:16;;;;;;;43.83;19.40;;;;;;;19.63;100.00;92253.69;4950396;28;20062;-81
2023/06/10 11:00:45;;;;;;;41.80;19.50;;;;;;;19.81;100.00;92250.66;4936922;29;20449;-81
2023/06/10 11:03:18;;;;;;;44.30;21.23;;;;;;;20.04;100.00;92248.88;4954724;29;20031;-80
2023/06/10 11:05:49;;;;;;;43.38;22.60;;;;;;;20.17;100.00;92244.94;4954492;28;20055;-81
2023/06/10 11:08:35;;;;;;;47.83;22.15;;;;;;;19.99;100.00;92245.72;4952834;29;20091;-80
2023/06/10 11:11:18;;;;;;;42.85;20.85;;;;;;;20.35;100.00;92239.97;4955316;29;20067;-80
2023/06/10 11:14:06;;;;;;;45.53;22.42;;;;;;;20.61;100.00;92243.84;4956664;28;20114;-81
2023/06/10 11:16:42;;;;;;;45.03;21.13;;;;;;;20.47;100.00;92240.91;4955212;29;20572;-80
2023/06/10 11:19:09;;;;;;;36.60;19.73;;;;;;;20.16;100.00;92238.09;4949490;29;20036;-80
2023/06/10 11:22:00;;;;;;;43.10;20.15;;;;;;;20.30;100.00;92242.88;4955512;28;20355;-80
2023/06/10 11:24:26;;;;;;;42.05;19.38;;;;;;;20.47;100.00;92235.59;4955874;28;20510;-80
2023/06/10 11:26:52;;;;;;;49.00;22.08;;;;;;;20.54;100.00;92233.81;4940513;29;20035;-81
2023/06/10 11:29:17;;;;;;;43.53;21.13;;;;;;;20.72;100.00;92234.16;4955113;29;20031;-81
2023/06/10 11:31:50;;;;;;;44.35;20.70;;;;;;;20.68;100.00;92235.97;4956483;29;20067;-80
2023/06/10 11:34:26;;;;;;;45.22;23.75;;;;;;;20.49;100.00;92239.44;4938867;29;20039;-81